Skip Navigation Links
NOAA logo - Click to go to the NOAA homepage
NOAA's National Weather Service
Alaska Aviation Weather Unit
  NWS logo - Click to go to the NWS homepage
Left Navbar Graphic     08 AKDT = 16 GMT

   
NOAA is celebrating 200 years of science, service, and stewardship. Visit the NOAA 200th celebration Web site to learn more.
USA.gov is the U.S. Government's official Web portal to all Federal, state and local government Web resources and services.
Facebook
NWS on Facebook

Important Change Regarding the AAWU Web Presence

 

Over the last several months, the AAWU has been working to navigate its webpages to a nationally supported server. Security, as well as other needs, have necessitated the change.  In the process, we have made an effort to enhance the functionality of our website, as well as some of our products. As of June 20, 2017, aawu.arh.noaa.gov will be discontinued. The new AAWU web address is weather.gov/aawu. It is now live and will run in-parallel with the old site until it is discontinued. Please send any feedback or questions regarding the new webpages to nws.ar.aawu.webauthors@noaa.gov.  Thank you for your patience during this time of transition.
AAWU Home :: Display TAF Add Bookmark
TAF PASD 231523Z 2315/2412 18018KT 5SM -RA OVC005
     FM232100 19018G25KT 4SM -RA SCT008 OVC015
      AMD LTD TO CLD VIS AND WIND=

METAR PASD 231016Z 20012KT 190V250 10SM OVC025 07/02 A3015 RMK AO1= METAR PASD 231036Z 18011G21KT 10SM OVC027 07/03 A3014 RMK AO1= METAR PASD 231056Z 18016G20KT 10SM BKN023 OVC029 07/03 A3014 RMK AO1= METAR PASD 231116Z 19015G22KT 10SM OVC018 07/03 A3014 RMK AO1= METAR PASD 231136Z 18014G21KT 10SM OVC016 06/03 A3014 RMK AO1= METAR PASD 231156Z 19013G26KT 10SM OVC016 06/04 A3014 RMK AO1 10070 20060 57003= METAR PASD 231216Z 18012G16KT 8SM OVC012 06/04 A3013 RMK AO1= METAR PASD 231236Z 17013KT 5SM OVC010 06/04 A3013 RMK AO1= METAR PASD 231256Z 19011G15KT 9SM OVC010 06/05 A3012 RMK AO1= METAR PASD 231316Z 20010G14KT 10SM OVC008 06/05 A3012 RMK AO1= METAR PASD 231336Z 19014G17KT 7SM OVC008 06/05 A3012 RMK AO1= METAR PASD 231356Z 19013KT 5SM OVC008 06/05 A3012 RMK AO1= METAR PASD 231416Z 18015KT 3SM OVC008 06/05 A3010 RMK AO1= METAR PASD 231436Z 18017G20KT 4SM OVC008 06/06 A3010 RMK AO1= METAR PASD 231456Z 18013G20KT 5SM OVC006 06/06 A3010 RMK AO1 WEA: -RA BR (KH) 57014= METAR PASD 231516Z 18017G21KT 5SM OVC005 06/06 A3009 RMK AO1 WEA: -RA BR (KH)= SPECI PASD 231528Z AUTO 18016G23KT 3SM -RA BR OVC005 06/06 A3009 RMK WEA: 1528 SPEC -RA BR VIS LWR SE-SW (KH)= METAR PASD 231536Z 18018G24KT 3SM OVC005 06/06 A3009 RMK AO1 WEA: 1528 SPEC -RA BR VIS LWR SE-SW (KH)= METAR PASD 231556Z 18019G24KT 3SM BKN004 OVC008 06/06 A3009 RMK AO1 WEA: -RA BR VIS LWR SE-SW (KH)= METAR PASD 231616Z 18023G26KT 3SM BKN004 OVC008 06/06 A3008 RMK AO1 WEA: -RA BR VIS LWR SE-SW (KH)= METAR PASD 231636Z 18019G22KT 3SM BKN004 OVC008 06/06 A3008 RMK AO1 WEA: -RA BR VIS LWR SE-SW (KH)=
 Alaska TAF Map

NOAA's National Weather Service
Alaska Aviation Weather Unit
6930 Sand Lake Road
Anchorage, AK 99502-1845
Disclaimer
Credits
Glossary
Privacy Policy
About Us
Career Opportunities
Contact AAWU Internet Services Site last modified: April, 17th 2012